createdAt,value
2022-09-30T00:01:51.789Z,99598.00
2022-09-30T00:04:20.329Z,99600.53
2022-09-30T00:06:48.040Z,99551.06
2022-09-30T00:09:17.004Z,99533.75
2022-09-30T00:11:46.305Z,99524.09
2022-09-30T00:14:14.990Z,99533.44
2022-09-30T00:16:42.595Z,99594.81
2022-09-30T00:19:10.142Z,99594.91
2022-09-30T00:21:37.539Z,99596.59
2022-09-30T00:24:05.370Z,99589.91
2022-09-30T00:26:34.722Z,99596.69
2022-09-30T00:29:02.791Z,99552.03
2022-09-30T00:31:31.467Z,99571.88
2022-09-30T00:34:08.564Z,99603.09
2022-09-30T00:36:37.300Z,99530.78
2022-09-30T00:39:05.001Z,99595.78
2022-09-30T00:41:33.743Z,99603.31
2022-09-30T00:44:01.472Z,99594.47
2022-09-30T00:46:33.201Z,99606.06
2022-09-30T00:49:01.753Z,99600.13
2022-09-30T00:51:31.689Z,99547.69
2022-09-30T00:54:00.867Z,99590.34
2022-09-30T00:56:30.084Z,99522.69
2022-09-30T00:59:02.164Z,99620.75
2022-09-30T01:01:29.619Z,99614.56
2022-09-30T01:03:57.984Z,99603.53
2022-09-30T01:06:25.415Z,99612.25
2022-09-30T01:08:53.005Z,99610.56
2022-09-30T01:11:20.483Z,99605.44
2022-09-30T01:13:50.274Z,99617.00
2022-09-30T01:16:29.499Z,99614.34
2022-09-30T01:19:06.928Z,99632.22
2022-09-30T01:21:47.886Z,99620.63
2022-09-30T01:24:27.845Z,99624.16
2022-09-30T01:27:06.340Z,99577.41
2022-09-30T01:29:50.267Z,99610.22
2022-09-30T01:32:24.040Z,99608.66
2022-09-30T01:34:53.399Z,99627.13
2022-09-30T01:37:24.056Z,99564.75
2022-09-30T01:39:52.860Z,99623.72
2022-09-30T01:42:23.796Z,99618.41
2022-09-30T01:44:55.324Z,99621.06
2022-09-30T01:47:26.293Z,99622.13
2022-09-30T01:49:56.685Z,99623.91
2022-09-30T01:52:28.097Z,99583.25
2022-09-30T01:54:59.082Z,99535.09
2022-09-30T01:57:28.184Z,99626.69
2022-09-30T01:59:57.720Z,99573.75
2022-09-30T02:02:27.773Z,99633.06
2022-09-30T02:04:57.551Z,99640.38
2022-09-30T02:07:27.009Z,99539.13
2022-09-30T02:09:55.964Z,99647.59
2022-09-30T02:12:24.098Z,99642.38
2022-09-30T02:14:52.589Z,99646.00
2022-09-30T02:17:21.143Z,99639.84
2022-09-30T02:19:52.213Z,99616.22
2022-09-30T02:22:21.277Z,99642.59
2022-09-30T02:24:50.061Z,99646.22
2022-09-30T02:27:18.994Z,99642.59
2022-09-30T02:29:49.594Z,99550.03
2022-09-30T02:32:19.347Z,99641.97
2022-09-30T02:34:48.703Z,99650.75
2022-09-30T02:37:19.124Z,99641.81
2022-09-30T02:39:48.882Z,99648.31
2022-09-30T02:42:20.258Z,99653.88
2022-09-30T02:44:48.157Z,99650.34
2022-09-30T02:47:17.095Z,99657.34
2022-09-30T02:49:47.779Z,99632.47
2022-09-30T02:52:22.789Z,99665.41
2022-09-30T02:54:52.631Z,99667.34
2022-09-30T02:57:21.595Z,99668.06
2022-09-30T02:59:51.090Z,99665.59
2022-09-30T03:02:18.726Z,99664.00
2022-09-30T03:04:46.933Z,99667.16
2022-09-30T03:07:14.403Z,99665.78
2022-09-30T03:09:43.204Z,99666.75
2022-09-30T03:12:15.812Z,99673.94
2022-09-30T03:15:01.461Z,99666.09
2022-09-30T03:17:46.582Z,99653.53
2022-09-30T03:20:31.059Z,99666.97
2022-09-30T03:23:20.395Z,99675.03
2022-09-30T03:25:53.897Z,99679.47
2022-09-30T03:28:24.097Z,99676.91
2022-09-30T03:30:52.944Z,99677.13
2022-09-30T03:33:22.826Z,99684.25
2022-09-30T03:35:54.040Z,99688.78
2022-09-30T03:38:26.679Z,99628.84
2022-09-30T03:40:59.046Z,99681.59
2022-09-30T03:43:28.287Z,99683.50
2022-09-30T03:45:58.292Z,99615.09
2022-09-30T03:48:25.729Z,99684.56
2022-09-30T03:50:53.324Z,99685.47
2022-09-30T03:53:20.986Z,99678.50
2022-09-30T03:55:49.318Z,99627.28
2022-09-30T03:58:18.868Z,99679.19
2022-09-30T04:00:48.481Z,99665.97
2022-09-30T04:03:16.005Z,99694.50
2022-09-30T04:05:43.519Z,99698.13
2022-09-30T04:08:11.070Z,99690.25
2022-09-30T04:10:40.550Z,99698.22
2022-09-30T04:13:07.974Z,99701.81
2022-09-30T04:15:36.816Z,99707.22
2022-09-30T04:18:04.397Z,99700.31
2022-09-30T04:20:31.819Z,99705.72
2022-09-30T04:22:59.481Z,99711.03
2022-09-30T04:25:26.946Z,99711.13
2022-09-30T04:27:54.391Z,99711.22
2022-09-30T04:30:25.585Z,99719.19
2022-09-30T04:32:56.018Z,99720.13
2022-09-30T04:35:23.536Z,99719.28
2022-09-30T04:37:50.980Z,99721.38
2022-09-30T04:40:18.417Z,99653.03
2022-09-30T04:42:47.486Z,99732.66
2022-09-30T04:45:15.134Z,99728.41
2022-09-30T04:47:44.249Z,99730.38
2022-09-30T04:50:13.252Z,99740.69
2022-09-30T04:52:43.127Z,99686.41
2022-09-30T04:55:10.872Z,99742.59
2022-09-30T04:57:38.499Z,99747.88
2022-09-30T05:00:09.063Z,99733.81
2022-09-30T05:02:36.538Z,99753.41
2022-09-30T05:05:04.143Z,99754.25
2022-09-30T05:07:32.909Z,99767.63
2022-09-30T05:10:00.313Z,99758.78
2022-09-30T05:12:27.829Z,99767.81
2022-09-30T05:14:55.277Z,99771.31
2022-09-30T05:17:22.688Z,99767.81
2022-09-30T05:19:50.119Z,99768.78
2022-09-30T05:22:17.547Z,99763.75
2022-09-30T05:24:46.280Z,99775.97
2022-09-30T05:27:13.687Z,99779.66
2022-09-30T05:29:42.232Z,99772.44
2022-09-30T05:32:09.648Z,99777.00
2022-09-30T05:34:38.141Z,99778.81
2022-09-30T05:37:05.638Z,99783.34
2022-09-30T05:39:33.092Z,99789.50
2022-09-30T05:42:01.858Z,99791.97
2022-09-30T05:44:29.291Z,99786.56
2022-09-30T05:46:56.796Z,99787.63
2022-09-30T05:49:24.304Z,99789.69
2022-09-30T05:51:52.204Z,99793.41
2022-09-30T05:54:20.081Z,99797.84
2022-09-30T05:56:47.511Z,99804.00
2022-09-30T05:59:16.231Z,99790.84
2022-09-30T06:01:43.796Z,99804.09
2022-09-30T06:04:11.293Z,99794.44
2022-09-30T06:06:38.823Z,99798.91
2022-09-30T06:09:06.325Z,99815.63
2022-09-30T06:11:34.897Z,99813.00
2022-09-30T06:14:02.579Z,99821.81
2022-09-30T06:16:31.901Z,99820.09
2022-09-30T06:18:59.396Z,99821.03
2022-09-30T06:21:27.083Z,99823.69
2022-09-30T06:23:54.570Z,99827.97
2022-09-30T06:26:21.996Z,99829.66
2022-09-30T06:28:50.171Z,99831.53
2022-09-30T06:31:17.664Z,99828.91
2022-09-30T06:33:46.654Z,99826.44
2022-09-30T06:36:14.086Z,99830.72
2022-09-30T06:38:41.513Z,99838.56
2022-09-30T06:41:09.683Z,99750.88
2022-09-30T06:43:47.541Z,99829.84
2022-09-30T06:46:25.171Z,99838.47
2022-09-30T06:49:13.421Z,99789.69
2022-09-30T06:51:41.976Z,99845.47
2022-09-30T06:54:09.914Z,99846.88
2022-09-30T06:56:37.390Z,99850.13
2022-09-30T06:59:04.833Z,99767.94
2022-09-30T07:01:32.251Z,99854.19
2022-09-30T07:04:03.232Z,99853.97
2022-09-30T07:06:31.124Z,99859.47
2022-09-30T07:08:58.609Z,99857.78
2022-09-30T07:11:26.417Z,99863.94
2022-09-30T07:13:54.314Z,99869.06
2022-09-30T07:16:22.074Z,99875.00
2022-09-30T07:18:49.528Z,99865.06
2022-09-30T07:21:18.381Z,99864.00
2022-09-30T07:23:47.555Z,99840.81
2022-09-30T07:26:15.225Z,99861.06
2022-09-30T07:28:43.621Z,99866.38
2022-09-30T07:31:31.911Z,99863.00
2022-09-30T07:33:59.601Z,99873.41
2022-09-30T07:36:32.618Z,99868.75
2022-09-30T07:39:05.157Z,99878.44
2022-09-30T07:41:32.616Z,99820.28
2022-09-30T07:44:00.046Z,99884.28
2022-09-30T07:46:29.656Z,99885.91
2022-09-30T07:49:00.588Z,99881.13
2022-09-30T07:51:31.163Z,99823.97
2022-09-30T07:53:59.598Z,99812.41
2022-09-30T07:56:27.065Z,99879.47
2022-09-30T07:58:54.797Z,99877.53
2022-09-30T08:01:22.491Z,99879.91
2022-09-30T08:03:55.212Z,99882.38
2022-09-30T08:06:22.798Z,99808.03
2022-09-30T08:08:53.049Z,99831.97
2022-09-30T08:11:20.678Z,99830.00
2022-09-30T08:13:51.364Z,99879.97
2022-09-30T08:16:18.915Z,99884.31
2022-09-30T08:18:46.387Z,99792.19
2022-09-30T08:21:13.949Z,99830.44
2022-09-30T08:23:41.416Z,99883.72
2022-09-30T08:26:11.208Z,99890.53
2022-09-30T08:28:38.778Z,99896.59
2022-09-30T08:31:07.010Z,99894.72
2022-09-30T08:33:34.608Z,99898.97
2022-09-30T08:36:05.981Z,99899.63
2022-09-30T08:38:33.470Z,99895.03
2022-09-30T08:41:08.273Z,99898.47
2022-09-30T08:43:39.513Z,99892.09
2022-09-30T08:46:09.813Z,99893.63
2022-09-30T08:51:03.925Z,99904.88
2022-09-30T08:53:32.626Z,99901.06
2022-09-30T08:56:02.491Z,99894.69
2022-09-30T08:58:31.341Z,99900.66
2022-09-30T09:01:01.444Z,99866.59
2022-09-30T09:03:29.148Z,99897.72
2022-09-30T09:06:00.752Z,99852.53
2022-09-30T09:08:30.728Z,99906.97
2022-09-30T09:11:01.068Z,99898.69
2022-09-30T09:13:37.667Z,99899.22
2022-09-30T09:16:08.996Z,99896.28
2022-09-30T09:19:01.874Z,99899.56
2022-09-30T09:21:32.727Z,99897.66
2022-09-30T09:24:01.749Z,99837.09
2022-09-30T09:26:29.431Z,99888.59
2022-09-30T09:29:04.649Z,99873.81
2022-09-30T09:31:33.481Z,99894.84
2022-09-30T09:34:02.126Z,99897.50
2022-09-30T09:36:38.932Z,99854.34
2022-09-30T09:39:14.559Z,99896.78
2022-09-30T09:41:44.976Z,99898.34
2022-09-30T09:44:15.984Z,99811.94
2022-09-30T09:46:46.452Z,99885.81
2022-09-30T09:49:29.387Z,99886.44
2022-09-30T09:52:12.547Z,99850.47
2022-09-30T09:54:41.587Z,99816.94
2022-09-30T09:57:10.164Z,99846.13
2022-09-30T09:59:37.755Z,99866.13
2022-09-30T10:02:22.637Z,99886.53
2022-09-30T10:04:59.724Z,99882.09
2022-09-30T10:07:27.919Z,99874.81
2022-09-30T10:10:07.517Z,99876.44
2022-09-30T10:12:34.964Z,99872.06
2022-09-30T10:15:04.292Z,99866.22
2022-09-30T10:17:33.895Z,99884.00
2022-09-30T10:20:07.661Z,99862.06
2022-09-30T10:22:35.601Z,99852.41
2022-09-30T10:25:26.886Z,99880.69
2022-09-30T10:27:56.198Z,99873.53
2022-09-30T10:30:39.217Z,99869.94
2022-09-30T10:33:17.938Z,99892.06
2022-09-30T10:35:54.647Z,99828.13
2022-09-30T10:38:22.155Z,99815.47
2022-09-30T10:40:50.230Z,99866.31
2022-09-30T10:46:01.287Z,99872.28
2022-09-30T10:48:35.959Z,99876.28
2022-09-30T10:51:03.427Z,99873.75
2022-09-30T10:53:32.090Z,99802.94
2022-09-30T10:56:01.378Z,99880.31
2022-09-30T10:58:31.554Z,99871.63
2022-09-30T11:01:01.413Z,99882.25
2022-09-30T11:03:31.145Z,99885.66
2022-09-30T11:06:00.059Z,99882.16
2022-09-30T11:08:30.456Z,99887.38
2022-09-30T11:11:01.055Z,99882.03
2022-09-30T11:13:31.179Z,99896.06
2022-09-30T11:16:03.014Z,99887.16
2022-09-30T11:18:31.828Z,99878.19
2022-09-30T11:21:03.016Z,99880.63
2022-09-30T11:23:32.000Z,99880.75
2022-09-30T11:26:02.819Z,99876.19
2022-09-30T11:28:45.223Z,99832.16
2022-09-30T11:31:18.096Z,99877.00
2022-09-30T11:33:57.877Z,99874.22
2022-09-30T11:36:30.067Z,99804.28
2022-09-30T11:39:14.191Z,99775.25
2022-09-30T11:41:43.101Z,99869.53
2022-09-30T11:44:19.438Z,99866.78
2022-09-30T11:46:53.165Z,99861.34
2022-09-30T11:49:31.586Z,99853.25
2022-09-30T11:52:04.178Z,99855.78
2022-09-30T11:54:39.325Z,99848.47
2022-09-30T11:57:08.693Z,99853.88
2022-09-30T11:59:38.075Z,99837.72
2022-09-30T12:02:06.362Z,99801.13
2022-09-30T12:04:35.777Z,99847.69
2022-09-30T12:07:07.417Z,99859.19
2022-09-30T12:09:37.603Z,99857.41
2022-09-30T12:12:06.895Z,99859.53
2022-09-30T12:14:35.620Z,99864.97
2022-09-30T12:17:05.452Z,99851.56
2022-09-30T12:19:35.274Z,99827.25
2022-09-30T12:22:07.209Z,99872.31
2022-09-30T12:24:38.561Z,99813.19
2022-09-30T12:27:06.152Z,99858.16
2022-09-30T12:29:53.649Z,99862.41
2022-09-30T12:32:41.468Z,99855.91
2022-09-30T12:35:28.016Z,99853.13
2022-09-30T12:38:05.665Z,99810.41
2022-09-30T12:40:51.554Z,99843.34
2022-09-30T12:43:42.714Z,99844.09
2022-09-30T12:46:16.803Z,99842.28
2022-09-30T12:48:45.477Z,99789.78
2022-09-30T12:51:13.280Z,99843.63
2022-09-30T12:53:42.024Z,99822.16
2022-09-30T12:56:10.896Z,99838.94
2022-09-30T12:58:39.530Z,99828.06
2022-09-30T13:01:08.517Z,99771.28
2022-09-30T13:03:52.776Z,99792.44
2022-09-30T13:06:21.293Z,99833.19
2022-09-30T13:09:19.461Z,99841.91
2022-09-30T13:11:48.017Z,99817.31
2022-09-30T13:14:33.775Z,99823.88
2022-09-30T13:17:02.904Z,99760.84
2022-09-30T13:19:36.169Z,99729.28
2022-09-30T13:22:42.931Z,99815.31
2022-09-30T13:25:16.411Z,99822.97
2022-09-30T13:27:44.830Z,99743.22
2022-09-30T13:30:39.924Z,99809.28
2022-09-30T13:33:29.147Z,99812.69
2022-09-30T13:35:59.007Z,99812.47
2022-09-30T13:38:35.284Z,99715.59
2022-09-30T13:41:07.533Z,99814.78
2022-09-30T13:43:38.088Z,99808.50
2022-09-30T13:46:07.267Z,99808.50
2022-09-30T13:48:35.764Z,99813.81
2022-09-30T13:51:06.467Z,99822.44
2022-09-30T13:53:35.656Z,99814.34
2022-09-30T13:56:08.256Z,99820.25
2022-09-30T13:59:03.799Z,99783.41
2022-09-30T14:01:43.144Z,99786.56
2022-09-30T14:04:23.293Z,99812.53
2022-09-30T14:06:52.620Z,99808.78
2022-09-30T14:09:32.989Z,99811.22
2022-09-30T14:12:24.592Z,99804.72
2022-09-30T14:15:12.807Z,99806.28
2022-09-30T14:17:55.900Z,99810.63
2022-09-30T14:20:41.029Z,99805.28
2022-09-30T14:23:14.437Z,99807.13
2022-09-30T14:25:46.004Z,99807.97
2022-09-30T14:28:16.087Z,99798.16
2022-09-30T14:31:03.718Z,99802.63
2022-09-30T14:33:34.336Z,99793.56
2022-09-30T14:36:02.239Z,99795.88
2022-09-30T14:38:30.299Z,99794.66
2022-09-30T14:40:59.393Z,99788.97
2022-09-30T14:43:35.911Z,99738.66
2022-09-30T14:46:07.805Z,99789.03
2022-09-30T14:48:36.443Z,99783.22
2022-09-30T14:51:05.591Z,99776.53
2022-09-30T14:53:33.718Z,99709.47
2022-09-30T14:56:01.660Z,99686.91
2022-09-30T14:58:31.383Z,99767.09
2022-09-30T15:01:06.791Z,99710.72
2022-09-30T15:03:35.797Z,99770.00
2022-09-30T15:06:03.607Z,99771.69
2022-09-30T15:08:31.073Z,99762.72
2022-09-30T15:10:58.754Z,99762.47
2022-09-30T15:13:27.752Z,99764.19
2022-09-30T15:15:56.586Z,99761.25
2022-09-30T15:18:28.364Z,99758.34
2022-09-30T15:20:56.764Z,99764.50
2022-09-30T15:23:27.104Z,99758.34
2022-09-30T15:25:55.288Z,99759.06
2022-09-30T15:28:22.774Z,99727.78
2022-09-30T15:30:51.788Z,99760.88
2022-09-30T15:33:22.351Z,99726.09
2022-09-30T15:35:49.792Z,99761.00
2022-09-30T15:38:20.517Z,99760.03
2022-09-30T15:40:50.484Z,99722.47
2022-09-30T15:43:32.803Z,99761.59
2022-09-30T15:46:09.056Z,99759.78
2022-09-30T15:48:37.999Z,99768.53
2022-09-30T15:51:40.953Z,99756.75
2022-09-30T15:54:29.097Z,99760.72
2022-09-30T15:56:57.193Z,99757.09
2022-09-30T15:59:24.713Z,99762.19
2022-09-30T16:01:52.335Z,99761.94
2022-09-30T16:04:26.118Z,99754.50
2022-09-30T16:06:54.326Z,99758.66
2022-09-30T16:09:27.065Z,99761.94
2022-09-30T16:12:05.237Z,99746.75
2022-09-30T16:14:33.916Z,99767.63
2022-09-30T16:17:02.587Z,99758.75
2022-09-30T16:19:31.438Z,99765.69
2022-09-30T16:21:58.963Z,99763.84
2022-09-30T16:24:48.687Z,99767.38
2022-09-30T16:27:31.192Z,99725.19
2022-09-30T16:29:58.923Z,99763.53
2022-09-30T16:32:27.766Z,99736.50
2022-09-30T16:34:56.475Z,99775.31
2022-09-30T16:37:23.945Z,99771.66
2022-09-30T16:39:51.442Z,99771.31
2022-09-30T16:42:19.232Z,99704.53
2022-09-30T16:44:46.707Z,99766.09
2022-09-30T16:47:16.120Z,99697.00
2022-09-30T16:49:44.192Z,99759.94
2022-09-30T16:52:13.205Z,99758.59
2022-09-30T16:54:42.571Z,99765.16
2022-09-30T16:57:13.223Z,99709.34
2022-09-30T16:59:40.694Z,99762.34
2022-09-30T17:02:10.567Z,99742.06
2022-09-30T17:04:38.978Z,99705.19
2022-09-30T17:07:06.409Z,99776.66
2022-09-30T17:09:35.168Z,99773.41
2022-09-30T17:12:02.682Z,99766.59
2022-09-30T17:14:30.091Z,99776.63
2022-09-30T17:16:58.087Z,99770.44
2022-09-30T17:19:26.038Z,99779.66
2022-09-30T17:21:53.468Z,99781.56
2022-09-30T17:24:21.067Z,99783.50
2022-09-30T17:26:50.768Z,99784.59
2022-09-30T17:29:32.009Z,99780.47
2022-09-30T17:32:00.054Z,99785.06
2022-09-30T17:34:27.792Z,99784.44
2022-09-30T17:36:56.044Z,99795.22
2022-09-30T17:39:23.523Z,99791.97
2022-09-30T17:42:09.711Z,99789.75
2022-09-30T17:44:38.957Z,99792.44
2022-09-30T17:47:06.643Z,99790.81
2022-09-30T17:49:34.555Z,99775.91
2022-09-30T17:52:02.422Z,99793.72
2022-09-30T17:54:29.832Z,99801.00
2022-09-30T17:56:58.586Z,99802.94
2022-09-30T17:59:27.131Z,99748.91
2022-09-30T18:01:56.275Z,99813.00
2022-09-30T18:04:24.534Z,99798.81
2022-09-30T18:06:52.213Z,99795.41
2022-09-30T18:09:19.608Z,99799.91
2022-09-30T18:11:47.056Z,99800.97
2022-09-30T18:14:15.967Z,99793.06
2022-09-30T18:16:43.586Z,99799.38
2022-09-30T18:19:11.144Z,99796.84
2022-09-30T18:21:38.786Z,99715.47
2022-09-30T18:24:07.005Z,99798.16
2022-09-30T18:26:36.034Z,99799.09
2022-09-30T18:29:03.719Z,99736.53
2022-09-30T18:31:37.308Z,99802.00
2022-09-30T18:34:05.915Z,99750.97
2022-09-30T18:36:33.349Z,99795.19
2022-09-30T18:39:01.973Z,99789.13
2022-09-30T18:41:31.729Z,99791.91
2022-09-30T18:44:02.567Z,99794.78
2022-09-30T18:46:31.794Z,99794.09
2022-09-30T18:48:59.195Z,99794.09
2022-09-30T18:51:26.617Z,99794.19
2022-09-30T18:53:55.876Z,99791.53
2022-09-30T18:56:23.535Z,99782.78
2022-09-30T18:58:51.401Z,99788.25
2022-09-30T19:01:19.048Z,99783.78
2022-09-30T19:03:47.882Z,99728.09
2022-09-30T19:06:15.713Z,99785.69
2022-09-30T19:08:43.845Z,99784.00
2022-09-30T19:11:13.815Z,99784.94
2022-09-30T19:13:42.475Z,99786.78
2022-09-30T19:16:10.903Z,99732.78
2022-09-30T19:18:39.131Z,99783.25
2022-09-30T19:21:09.888Z,99692.81
2022-09-30T19:23:37.530Z,99789.22
2022-09-30T19:26:05.360Z,99784.00
2022-09-30T19:28:32.971Z,99727.13
2022-09-30T19:31:03.804Z,99774.41
2022-09-30T19:33:31.331Z,99784.00
2022-09-30T19:36:14.066Z,99776.00
2022-09-30T19:38:44.988Z,99774.41
2022-09-30T19:41:12.784Z,99774.28
2022-09-30T19:43:40.649Z,99773.56
2022-09-30T19:46:08.533Z,99773.56
2022-09-30T19:48:36.139Z,99777.94
2022-09-30T19:51:05.087Z,99707.19
2022-09-30T19:53:32.936Z,99783.38
2022-09-30T19:56:03.118Z,99779.84
2022-09-30T19:58:31.186Z,99773.81
2022-09-30T20:00:58.702Z,99770.16
2022-09-30T20:03:28.047Z,99764.94
2022-09-30T20:05:59.516Z,99768.47
2022-09-30T20:08:27.052Z,99761.53
2022-09-30T20:10:55.345Z,99759.94
2022-09-30T20:13:24.144Z,99752.81
2022-09-30T20:15:50.773Z,99742.09
2022-09-30T20:18:18.372Z,99750.97
2022-09-30T20:20:46.357Z,99732.63
2022-09-30T20:23:13.939Z,99761.84
2022-09-30T20:25:41.810Z,99764.50
2022-09-30T20:28:09.356Z,99754.84
2022-09-30T20:30:45.370Z,99750.38
2022-09-30T20:33:16.713Z,99751.19
2022-09-30T20:35:44.200Z,99746.09
2022-09-30T20:38:15.583Z,99649.16
2022-09-30T20:40:43.162Z,99660.53
2022-09-30T20:43:10.742Z,99745.38
2022-09-30T20:45:41.278Z,99687.72
2022-09-30T20:48:09.429Z,99743.56
2022-09-30T20:50:37.000Z,99749.84
2022-09-30T20:53:05.766Z,99742.72
2022-09-30T20:55:34.861Z,99736.66
2022-09-30T20:58:02.375Z,99745.50
2022-09-30T21:00:30.762Z,99737.63
2022-09-30T21:02:59.543Z,99737.63
2022-09-30T21:05:26.996Z,99741.13
2022-09-30T21:07:54.461Z,99740.41
2022-09-30T21:10:21.943Z,99737.84
2022-09-30T21:12:49.805Z,99729.88
2022-09-30T21:15:17.966Z,99730.81
2022-09-30T21:17:45.964Z,99727.31
2022-09-30T21:20:14.776Z,99724.78
2022-09-30T21:22:42.865Z,99727.44
2022-09-30T21:25:10.558Z,99725.47
2022-09-30T21:27:38.005Z,99716.78
2022-09-30T21:30:06.865Z,99710.72
2022-09-30T21:32:34.714Z,99713.38
2022-09-30T21:35:02.107Z,99711.56
2022-09-30T21:37:30.922Z,99707.19
2022-09-30T21:39:58.355Z,99711.69
2022-09-30T21:42:26.205Z,99706.38
2022-09-30T21:44:54.116Z,99635.75
2022-09-30T21:47:21.591Z,99699.31
2022-09-30T21:49:49.573Z,99695.94
2022-09-30T21:52:17.027Z,99699.31
2022-09-30T21:54:45.907Z,99691.44
2022-09-30T21:57:13.345Z,99695.09
2022-09-30T21:59:44.689Z,99694.22
2022-09-30T22:02:15.615Z,99635.50
2022-09-30T22:04:43.097Z,99688.06
2022-09-30T22:07:10.519Z,99682.88
2022-09-30T22:09:39.659Z,99681.13
2022-09-30T22:12:09.055Z,99679.34
2022-09-30T22:14:37.466Z,99673.16
2022-09-30T22:17:09.835Z,99674.13
2022-09-30T22:19:38.741Z,99665.41
2022-09-30T22:22:06.555Z,99669.78
2022-09-30T22:24:36.757Z,99666.38
2022-09-30T22:27:05.337Z,99673.59
2022-09-30T22:29:34.137Z,99666.59
2022-09-30T22:32:02.753Z,99663.81
2022-09-30T22:34:47.704Z,99662.84
2022-09-30T22:37:33.026Z,99667.34
2022-09-30T22:40:01.135Z,99663.09
2022-09-30T22:42:29.129Z,99655.97
2022-09-30T22:44:57.876Z,99663.94
2022-09-30T22:47:25.365Z,99662.13
2022-09-30T22:49:52.816Z,99668.50
2022-09-30T22:52:20.379Z,99663.19
2022-09-30T22:54:47.893Z,99655.22
2022-09-30T22:57:16.150Z,99659.81
2022-09-30T22:59:44.527Z,99660.66
2022-09-30T23:02:13.321Z,99652.06
2022-09-30T23:04:41.240Z,99659.81
2022-09-30T23:07:08.710Z,99662.38
2022-09-30T23:09:36.147Z,99654.94
2022-09-30T23:12:03.604Z,99653.63
2022-09-30T23:14:31.053Z,99652.78
2022-09-30T23:16:58.569Z,99654.72
2022-09-30T23:19:27.430Z,99655.56
2022-09-30T23:21:54.871Z,99641.75
2022-09-30T23:24:22.359Z,99645.38
2022-09-30T23:26:49.784Z,99645.03
2022-09-30T23:29:17.340Z,99643.44
2022-09-30T23:31:44.866Z,99638.13
2022-09-30T23:34:13.073Z,99621.31
2022-09-30T23:36:41.991Z,99634.50
2022-09-30T23:39:13.329Z,99630.16
2022-09-30T23:41:40.893Z,99622.16
2022-09-30T23:44:09.908Z,99628.47
2022-09-30T23:46:37.373Z,99619.63
2022-09-30T23:49:04.844Z,99620.59
2022-09-30T23:51:33.437Z,99613.53
2022-09-30T23:54:02.851Z,99610.78
2022-09-30T23:56:32.015Z,99604.00
2022-09-30T23:58:59.798Z,99609.09
